Time;durP1;ratioP1;P1;durP2;ratioP2;P2;SDS_P1;SDS_P2;PMS_P1;PMS_P2;Temp;Humidity;BMP_temperature;BMP_pressure;BME280_temperature;BME280_humidity;BME280_pressure;Samples;Min_cycle;Max_cycle;Signal;HPM_P1;HPM_P2
2023/12/01 05:01:02;;;;;;;23.00;16.02;;;;;;;5.54;100.00;99132.06;5605957;31;80372;-56
2023/12/01 05:04:08;;;;;;;20.25;13.57;;;;;;;5.54;100.00;99132.06;5582303;32;34185;-56
2023/12/01 05:07:11;;;;;;;18.85;12.77;;;;;;;4.97;95.49;99130.78;5581420;32;33121;-56
2023/12/01 05:10:16;;;;;;;22.87;15.70;;;;;;;4.99;95.93;99131.31;5563930;32;34336;-56
2023/12/01 05:13:19;;;;;;;25.12;16.12;;;;;;;5.36;100.00;99134.31;5564098;32;33540;-56
2023/12/01 05:16:23;;;;;;;23.40;15.20;;;;;;;5.19;100.00;99137.31;5564036;32;34343;-56
2023/12/01 05:19:27;;;;;;;27.05;16.60;;;;;;;5.13;100.00;99126.97;5563839;32;33830;-56
2023/12/01 05:22:30;;;;;;;28.77;16.65;;;;;;;5.48;100.00;99133.94;5563819;32;33485;-56
2023/12/01 05:25:32;;;;;;;28.65;17.00;;;;;;;5.33;100.00;99131.38;5563672;32;34135;-56
2023/12/01 05:28:37;;;;;;;26.75;17.02;;;;;;;5.62;100.00;99120.81;5563824;32;34149;-56
2023/12/01 05:31:39;;;;;;;26.60;16.50;;;;;;;5.37;95.40;99133.22;5563909;32;33636;-56
2023/12/01 05:34:42;;;;;;;22.17;14.25;;;;;;;5.34;92.03;99156.91;5563958;32;34300;-56
2023/12/01 05:37:50;;;;;;;17.92;13.98;;;;;;;5.40;89.85;99150.50;5563804;32;34251;-56
2023/12/01 05:40:53;;;;;;;16.90;12.30;;;;;;;5.19;91.28;99139.97;5563303;32;33531;-56
2023/12/01 05:43:55;;;;;;;17.75;12.52;;;;;;;5.06;91.41;99143.22;5563806;32;34142;-56
2023/12/01 05:46:59;;;;;;;17.17;11.85;;;;;;;5.02;90.89;99141.41;5563698;32;34345;-56
2023/12/01 05:50:01;;;;;;;16.30;11.73;;;;;;;4.99;91.81;99147.25;5563776;32;33538;-56
2023/12/01 05:53:08;;;;;;;16.75;11.50;;;;;;;5.04;91.68;99149.91;5566611;32;33951;-56
2023/12/01 05:56:10;;;;;;;17.83;12.75;;;;;;;4.95;91.49;99134.53;5572337;31;33800;-56
2023/12/01 05:59:13;;;;;;;16.52;12.07;;;;;;;4.97;93.92;99136.91;5576328;32;34856;-56
2023/12/01 06:02:15;;;;;;;16.37;10.98;;;;;;;5.13;95.95;99151.72;5566759;31;33695;-56
2023/12/01 06:05:19;;;;;;;16.65;10.63;;;;;;;5.22;95.05;99153.78;5572933;32;33672;-56
2023/12/01 06:08:21;;;;;;;17.20;12.07;;;;;;;5.17;100.00;99159.91;5568296;32;34209;-56
2023/12/01 06:11:24;;;;;;;15.25;11.38;;;;;;;5.51;100.00;99152.00;5570730;32;33693;-56
2023/12/01 06:14:26;;;;;;;15.32;11.00;;;;;;;5.61;100.00;99156.44;5556451;32;33837;-56
2023/12/01 06:17:29;;;;;;;16.12;11.70;;;;;;;5.41;96.09;99152.06;5558078;32;33682;-56
2023/12/01 06:20:31;;;;;;;14.90;11.23;;;;;;;5.30;98.41;99154.00;5551089;32;33712;-56
2023/12/01 06:23:34;;;;;;;14.77;10.45;;;;;;;5.23;100.00;99161.50;5567680;32;34253;-56
2023/12/01 06:26:39;;;;;;;16.55;11.15;;;;;;;5.26;99.00;99162.78;5550262;32;33931;-56
2023/12/01 06:29:44;;;;;;;16.90;11.18;;;;;;;5.24;96.09;99170.25;5554761;32;33623;-56
2023/12/01 06:32:46;;;;;;;17.45;11.40;;;;;;;5.20;100.00;99172.66;5566993;32;33884;-56
2023/12/01 06:35:49;;;;;;;20.12;10.98;;;;;;;5.75;100.00;99176.00;5557631;32;33570;-56
2023/12/01 06:38:51;;;;;;;14.60;10.55;;;;;;;5.63;100.00;99171.06;5557539;32;34386;-56
2023/12/01 06:41:54;;;;;;;18.75;11.75;;;;;;;5.99;100.00;99162.03;5559666;32;33846;-56
2023/12/01 06:44:57;;;;;;;14.40;10.50;;;;;;;5.70;100.00;99167.31;5554979;32;33711;-56
2023/12/01 06:47:59;;;;;;;15.57;10.32;;;;;;;5.86;100.00;99168.75;5555848;32;34004;-56
2023/12/01 06:51:04;;;;;;;12.82;9.05;;;;;;;5.67;95.31;99171.31;5560242;32;33529;-56
2023/12/01 06:54:09;;;;;;;14.40;9.82;;;;;;;5.54;100.00;99156.75;5559195;32;33551;-56
2023/12/01 06:57:12;;;;;;;16.20;10.25;;;;;;;5.72;100.00;99163.28;5567681;32;33575;-56
2023/12/01 07:00:29;;;;;;;13.68;10.13;;;;;;;5.62;96.98;99152.72;5556595;32;33552;-56
2023/12/01 07:03:33;;;;;;;15.35;10.40;;;;;;;5.71;100.00;99163.56;5567024;32;33649;-56
2023/12/01 07:06:36;;;;;;;14.40;9.88;;;;;;;5.68;98.37;99188.03;5556878;32;33663;-56
2023/12/01 07:09:41;;;;;;;16.23;11.10;;;;;;;5.95;100.00;99171.63;5562512;32;33971;-56
2023/12/01 07:12:59;;;;;;;15.52;10.98;;;;;;;5.88;100.00;99171.94;5566763;32;33923;-56
2023/12/01 07:16:09;;;;;;;13.90;10.02;;;;;;;5.63;99.68;99189.69;5566336;32;34039;-56
2023/12/01 07:19:13;;;;;;;15.40;10.68;;;;;;;5.99;100.00;99181.44;5563843;32;33168;-56
2023/12/01 07:22:16;;;;;;;14.30;10.30;;;;;;;5.45;94.60;99213.44;5556470;32;34579;-56
2023/12/01 07:25:23;;;;;;;14.75;10.38;;;;;;;5.65;100.00;99197.34;5557984;32;33824;-56
2023/12/01 07:28:28;;;;;;;14.80;10.77;;;;;;;5.27;94.88;99207.69;5549444;32;34114;-56
2023/12/01 07:31:33;;;;;;;13.43;10.02;;;;;;;5.91;100.00;99200.63;5560086;32;33547;-56
2023/12/01 07:34:36;;;;;;;12.90;9.23;;;;;;;6.09;100.00;99202.66;5561861;32;33504;-56
2023/12/01 07:37:42;;;;;;;15.90;11.00;;;;;;;6.20;100.00;99158.12;5550605;32;33535;-56
2023/12/01 07:40:46;;;;;;;15.07;10.88;;;;;;;6.10;100.00;99180.28;5550263;32;32375;-56
2023/12/01 07:43:52;;;;;;;16.10;11.35;;;;;;;5.87;95.07;99178.34;5563161;32;33773;-56
2023/12/01 07:46:54;;;;;;;14.37;10.07;;;;;;;5.40;91.86;99195.66;5554747;32;33395;-56
2023/12/01 07:49:57;;;;;;;14.75;10.45;;;;;;;5.88;100.00;99183.34;5566370;32;33564;-56
2023/12/01 07:53:01;;;;;;;13.27;9.88;;;;;;;5.95;100.00;99191.06;5560505;32;34285;-56
2023/12/01 07:56:04;;;;;;;15.57;10.30;;;;;;;6.02;98.18;99182.75;5555784;32;34348;-56
2023/12/01 07:59:07;;;;;;;14.02;10.95;;;;;;;6.17;100.00;99195.16;5555568;32;33593;-56
2023/12/01 08:02:09;;;;;;;18.42;12.30;;;;;;;5.70;94.41;99215.16;5566051;32;33689;-56
2023/12/01 08:05:15;;;;;;;18.15;12.43;;;;;;;5.72;100.00;99211.13;5564792;32;33689;-56
2023/12/01 08:08:20;;;;;;;14.52;10.35;;;;;;;5.80;100.00;99215.87;5562910;32;33635;-56
2023/12/01 08:11:22;;;;;;;19.80;12.70;;;;;;;6.23;100.00;99199.34;5564703;32;33557;-56
2023/12/01 08:14:25;;;;;;;15.55;11.35;;;;;;;5.50;94.31;99219.53;5557355;32;33444;-56
2023/12/01 08:17:27;;;;;;;14.87;10.85;;;;;;;5.90;100.00;99233.63;5560994;32;34248;-56
2023/12/01 08:20:30;;;;;;;15.38;11.70;;;;;;;5.55;100.00;99216.03;5566547;32;33707;-56
2023/12/01 08:23:34;;;;;;;15.98;10.50;;;;;;;5.58;92.27;99215.50;5557233;32;34079;-56
2023/12/01 08:26:37;;;;;;;17.15;11.27;;;;;;;5.94;100.00;99231.25;5562296;32;33214;-56
2023/12/01 08:29:42;;;;;;;16.70;11.90;;;;;;;6.38;100.00;99209.84;5560351;32;33716;-56
2023/12/01 08:32:44;;;;;;;15.55;11.77;;;;;;;6.61;100.00;99212.81;5566055;32;33623;-56
2023/12/01 08:35:47;;;;;;;17.08;11.90;;;;;;;6.52;100.00;99217.97;5567775;32;34356;-56
2023/12/01 08:38:49;;;;;;;17.62;11.85;;;;;;;6.36;100.00;99230.63;5561792;32;33712;-56
2023/12/01 08:41:53;;;;;;;17.75;12.57;;;;;;;6.17;100.00;99221.75;5548497;32;33705;-56
2023/12/01 08:44:55;;;;;;;17.83;11.90;;;;;;;5.89;100.00;99234.69;5556751;32;33733;-56
2023/12/01 08:47:58;;;;;;;16.15;11.45;;;;;;;5.70;92.85;99239.87;5554613;32;33665;-56
2023/12/01 08:51:02;;;;;;;15.38;11.38;;;;;;;5.53;93.06;99224.31;5554225;32;33681;-56
2023/12/01 08:54:04;;;;;;;14.15;10.85;;;;;;;5.48;98.84;99232.28;5555397;32;34466;-56
2023/12/01 08:57:07;;;;;;;15.65;11.95;;;;;;;5.17;98.66;99221.03;5552396;32;33704;-56
2023/12/01 09:00:10;;;;;;;18.05;13.50;;;;;;;5.58;100.00;99216.28;5556614;32;32163;-56
2023/12/01 09:03:13;;;;;;;15.85;12.43;;;;;;;5.73;100.00;99223.37;5548253;32;33553;-56
2023/12/01 09:06:15;;;;;;;16.37;12.57;;;;;;;5.38;93.39;99221.72;5551800;32;32170;-56
2023/12/01 09:09:18;;;;;;;17.50;12.73;;;;;;;5.20;95.00;99241.75;5554186;32;33505;-56
2023/12/01 09:12:21;;;;;;;15.63;12.02;;;;;;;5.09;98.76;99240.97;5548774;32;33630;-56
2023/12/01 09:15:23;;;;;;;17.90;12.18;;;;;;;5.52;100.00;99237.84;5554603;32;33323;-56
2023/12/01 09:18:32;;;;;;;17.27;11.18;;;;;;;5.30;100.00;99235.59;5562306;32;32187;-56
2023/12/01 09:21:34;;;;;;;14.85;11.45;;;;;;;5.25;94.61;99233.72;5554458;32;33868;-56
2023/12/01 09:24:37;;;;;;;16.35;11.43;;;;;;;5.67;100.00;99231.66;5559669;32;33585;-56
2023/12/01 09:27:41;;;;;;;14.52;12.00;;;;;;;5.36;96.26;99235.28;5566634;32;34328;-56
2023/12/01 09:30:44;;;;;;;16.33;11.70;;;;;;;5.19;94.99;99229.50;5563515;32;34259;-56
2023/12/01 09:33:47;;;;;;;15.43;11.63;;;;;;;5.50;100.00;99227.50;5555830;32;34395;-56
2023/12/01 09:36:50;;;;;;;16.10;11.93;;;;;;;5.88;100.00;99225.13;5557111;32;34232;-56
2023/12/01 09:39:54;;;;;;;14.87;11.05;;;;;;;6.40;100.00;99222.87;5562717;32;33868;-56
2023/12/01 09:42:57;;;;;;;14.13;9.63;;;;;;;5.76;95.58;99220.16;5566859;32;33553;-56
2023/12/01 09:46:01;;;;;;;16.90;10.95;;;;;;;5.89;100.00;99221.38;5562667;32;33680;-56
2023/12/01 09:49:04;;;;;;;14.35;10.30;;;;;;;5.85;95.19;99223.03;5562262;32;33683;-56
2023/12/01 09:52:07;;;;;;;15.20;9.30;;;;;;;5.91;96.08;99224.56;5569635;32;33864;-56
2023/12/01 09:55:10;;;;;;;32.65;9.43;;;;;;;5.94;100.00;99201.97;5569435;32;35263;-56
2023/12/01 09:58:14;;;;;;;14.20;10.50;;;;;;;6.37;100.00;99186.97;5561955;32;33582;-56
2023/12/01 10:01:17;;;;;;;15.55;9.70;;;;;;;6.27;100.00;99179.88;5564728;32;34466;-56
2023/12/01 10:04:20;;;;;;;13.85;10.75;;;;;;;6.17;95.73;99185.28;5566095;32;33618;-56
2023/12/01 10:07:23;;;;;;;14.55;10.48;;;;;;;6.12;99.49;99178.16;5563013;32;32459;-57
2023/12/01 10:10:26;;;;;;;16.27;12.07;;;;;;;6.52;100.00;99186.00;5555971;32;33588;-56
2023/12/01 10:13:39;;;;;;;16.45;11.95;;;;;;;6.41;97.37;99189.84;5566159;32;33712;-56
2023/12/01 10:16:42;;;;;;;17.33;12.13;;;;;;;5.95;98.35;99182.28;5563782;32;33716;-56
2023/12/01 10:19:48;;;;;;;14.10;11.18;;;;;;;6.28;100.00;99175.34;5563171;32;33236;-56
2023/12/01 10:22:51;;;;;;;17.10;12.45;;;;;;;6.56;100.00;99173.75;5564774;32;33738;-56
2023/12/01 10:25:53;;;;;;;13.23;9.60;;;;;;;6.06;93.97;99170.47;5566830;32;34473;-56
2023/12/01 10:28:57;;;;;;;15.38;11.18;;;;;;;5.88;95.35;99166.59;5569340;32;33670;-56
2023/12/01 10:32:11;;;;;;;17.00;11.60;;;;;;;6.02;100.00;99156.94;5566568;32;33921;-56
2023/12/01 10:35:13;;;;;;;14.32;11.30;;;;;;;5.93;94.98;99155.16;5550643;32;33453;-56
2023/12/01 10:38:15;;;;;;;12.50;9.95;;;;;;;6.26;100.00;99159.66;5561697;32;33645;-56
2023/12/01 10:41:20;;;;;;;15.45;10.27;;;;;;;6.26;100.00;99157.00;5565159;32;33632;-56
2023/12/01 10:44:24;;;;;;;12.75;10.07;;;;;;;6.28;100.00;99159.38;5565621;32;34318;-56
2023/12/01 10:47:30;;;;;;;11.40;8.75;;;;;;;6.07;99.95;99148.13;5560984;32;33629;-56
2023/12/01 10:50:36;;;;;;;13.30;9.63;;;;;;;5.96;100.00;99152.75;5557453;32;33383;-56
2023/12/01 10:53:40;;;;;;;14.95;9.50;;;;;;;6.17;100.00;99149.91;5565372;32;34390;-56
2023/12/01 10:56:55;;;;;;;13.70;9.50;;;;;;;6.18;100.00;99149.63;5563993;32;34261;-56
2023/12/01 11:00:00;;;;;;;12.48;9.55;;;;;;;6.16;100.00;99148.31;5566432;32;33676;-56
2023/12/01 11:03:06;;;;;;;11.52;9.20;;;;;;;6.29;100.00;99148.47;5560837;32;33389;-56
2023/12/01 11:06:30;;;;;;;12.45;9.80;;;;;;;6.44;100.00;99144.84;5551340;32;33536;-56
2023/12/01 11:09:42;;;;;;;13.15;9.00;;;;;;;6.25;100.00;99138.63;5561971;32;34075;-56
2023/12/01 11:12:57;;;;;;;11.95;9.00;;;;;;;5.97;95.03;99121.62;5563850;32;33656;-56
2023/12/01 11:16:00;;;;;;;13.40;9.50;;;;;;;6.43;100.00;99115.84;5560845;32;33672;-56
2023/12/01 11:19:02;;;;;;;12.07;8.80;;;;;;;6.39;98.57;99120.94;5557666;32;33605;-56
2023/12/01 11:22:31;;;;;;;11.63;9.52;;;;;;;6.13;100.00;99117.75;5563460;32;33771;-56
2023/12/01 11:25:46;;;;;;;12.05;9.07;;;;;;;5.94;95.26;99112.34;5560749;32;33784;-56
2023/12/01 11:28:57;;;;;;;12.13;8.93;;;;;;;6.02;100.00;99108.25;5560136;32;33712;-56
2023/12/01 11:32:00;;;;;;;12.60;8.90;;;;;;;5.56;94.41;99114.75;5559931;32;33737;-56
2023/12/01 11:35:06;;;;;;;12.30;8.88;;;;;;;5.59;100.00;99110.72;5565100;32;33787;-57
2023/12/01 11:38:09;;;;;;;11.52;8.57;;;;;;;6.17;100.00;99105.47;5565089;32;33695;-56
2023/12/01 11:41:22;;;;;;;11.75;8.88;;;;;;;6.12;100.00;99116.97;5559999;32;33641;-56
2023/12/01 11:44:34;;;;;;;10.95;7.97;;;;;;;5.85;93.91;99129.94;5565003;32;33689;-56
2023/12/01 11:47:38;;;;;;;14.73;8.98;;;;;;;5.76;98.27;99124.44;5568018;32;34322;-57
2023/12/01 11:50:41;;;;;;;11.35;8.25;;;;;;;6.12;100.00;99119.63;5566661;32;33762;-56
2023/12/01 11:53:44;;;;;;;11.55;8.20;;;;;;;6.11;100.00;99109.25;5562407;32;33698;-56
2023/12/01 11:56:50;;;;;;;10.63;7.72;;;;;;;6.65;100.00;99110.78;5568157;32;34430;-57
2023/12/01 11:59:56;;;;;;;9.63;7.03;;;;;;;6.58;100.00;99095.13;5564078;32;33743;-60
2023/12/01 12:02:59;;;;;;;9.40;7.35;;;;;;;6.90;100.00;99111.53;5561924;32;33245;-59
2023/12/01 12:06:03;;;;;;;9.77;6.90;;;;;;;6.74;100.00;99101.06;5565202;32;34322;-56
2023/12/01 12:09:08;;;;;;;7.87;6.62;;;;;;;6.52;95.97;99096.31;5562685;32;33695;-56
2023/12/01 12:12:13;;;;;;;8.70;6.57;;;;;;;6.36;95.06;99102.88;5561537;32;33860;-56
2023/12/01 12:15:16;;;;;;;9.48;6.78;;;;;;;6.56;100.00;99104.50;5558455;32;34343;-56
2023/12/01 12:18:24;;;;;;;9.27;6.50;;;;;;;6.22;93.48;99093.97;5565637;32;33687;-58
2023/12/01 12:21:28;;;;;;;8.13;6.15;;;;;;;6.17;100.00;99097.47;5564631;32;34358;-56
2023/12/01 12:24:31;;;;;;;8.90;6.00;;;;;;;6.45;100.00;99087.84;5566183;32;34355;-56
2023/12/01 12:27:39;;;;;;;10.43;6.05;;;;;;;6.55;100.00;99076.28;5560186;32;33738;-57
2023/12/01 12:30:42;;;;;;;8.10;6.00;;;;;;;6.37;100.00;99069.84;5564106;32;33752;-57
2023/12/01 12:33:44;;;;;;;7.72;5.53;;;;;;;6.53;100.00;99075.78;5567516;32;34252;-57
2023/12/01 12:36:50;;;;;;;9.70;5.97;;;;;;;6.63;100.00;99078.31;5563553;32;33685;-57
2023/12/01 12:39:52;;;;;;;7.85;5.80;;;;;;;6.46;100.00;99084.13;5565459;32;33436;-57
2023/12/01 12:42:57;;;;;;;7.03;5.25;;;;;;;6.43;96.45;99084.69;5560895;32;33748;-56
2023/12/01 12:46:04;;;;;;;7.93;6.25;;;;;;;6.22;100.00;99091.28;5562886;32;34507;-57
2023/12/01 12:49:08;;;;;;;8.38;7.00;;;;;;;6.22;100.00;99086.75;5563447;32;33701;-57
2023/12/01 12:52:11;;;;;;;9.40;6.60;;;;;;;6.56;100.00;99081.34;5564736;32;33622;-57
2023/12/01 12:55:23;;;;;;;8.43;6.75;;;;;;;6.58;100.00;99084.50;5565628;32;33128;-56
2023/12/01 12:58:26;;;;;;;8.90;6.57;;;;;;;6.64;100.00;99079.13;5558979;32;32255;-57
2023/12/01 13:01:28;;;;;;;8.10;6.50;;;;;;;6.32;92.89;99088.53;5564878;32;33564;-57
2023/12/01 13:04:30;;;;;;;8.23;6.57;;;;;;;6.30;100.00;99078.16;5565312;32;33657;-57
2023/12/01 13:07:33;;;;;;;8.48;6.37;;;;;;;6.47;100.00;99079.59;5563360;32;33898;-57
2023/12/01 13:10:35;;;;;;;8.07;6.45;;;;;;;5.94;100.00;99067.12;5564805;32;33285;-57
2023/12/01 13:13:41;;;;;;;8.30;6.57;;;;;;;6.61;100.00;99051.19;5561105;32;32238;-56
2023/12/01 13:16:43;;;;;;;9.13;6.53;;;;;;;6.62;99.23;99067.94;5558231;32;33686;-56
2023/12/01 13:19:58;;;;;;;8.10;6.43;;;;;;;6.35;100.00;99064.78;5560507;32;33745;-57
2023/12/01 13:23:00;;;;;;;6.68;5.12;;;;;;;6.27;100.00;99054.00;5569552;32;33776;-56
2023/12/01 13:26:03;;;;;;;7.07;5.43;;;;;;;6.18;93.75;99066.34;5561064;32;33677;-57
2023/12/01 13:29:06;;;;;;;7.95;5.37;;;;;;;6.30;100.00;99072.84;5561190;32;33657;-57
2023/12/01 13:32:08;;;;;;;7.15;5.50;;;;;;;6.51;100.00;99056.63;5555694;32;33655;-57
2023/12/01 13:35:10;;;;;;;6.97;5.20;;;;;;;6.08;93.62;99072.56;5569820;32;34051;-57
2023/12/01 13:38:13;;;;;;;8.05;5.57;;;;;;;6.49;100.00;99078.22;5563074;32;33963;-56
2023/12/01 13:41:15;;;;;;;6.82;5.00;;;;;;;6.31;99.36;99094.94;5562437;32;33754;-56
2023/12/01 13:44:18;;;;;;;7.35;5.20;;;;;;;6.62;100.00;99089.25;5564663;32;33273;-57
2023/12/01 13:47:20;;;;;;;7.40;5.07;;;;;;;6.69;100.00;99079.84;5562982;32;33720;-55
2023/12/01 13:50:22;;;;;;;6.60;5.03;;;;;;;6.68;100.00;99074.78;5552779;32;33034;-55
2023/12/01 13:53:25;;;;;;;6.60;5.15;;;;;;;6.43;97.74;99076.69;5566226;32;34353;-55
2023/12/01 13:56:27;;;;;;;5.75;4.50;;;;;;;6.69;100.00;99073.72;5567421;32;33862;-55
2023/12/01 13:59:29;;;;;;;5.82;4.45;;;;;;;6.28;99.51;99090.16;5564084;32;34398;-55
2023/12/01 14:02:32;;;;;;;6.00;4.47;;;;;;;6.14;92.90;99100.69;5561898;32;33674;-55
2023/12/01 14:05:34;;;;;;;5.60;4.35;;;;;;;5.95;100.00;99089.97;5564473;32;33631;-55
2023/12/01 14:08:37;;;;;;;5.35;4.60;;;;;;;6.34;100.00;99099.69;5563816;32;33767;-55
2023/12/01 14:11:39;;;;;;;6.87;4.37;;;;;;;6.61;100.00;99108.97;5562573;32;33900;-56
2023/12/01 14:14:41;;;;;;;7.03;5.15;;;;;;;6.56;100.00;99109.84;5561699;32;34309;-56
2023/12/01 14:17:44;;;;;;;7.80;4.43;;;;;;;6.03;93.25;99113.31;5565922;31;34428;-55
2023/12/01 14:20:47;;;;;;;7.40;4.87;;;;;;;6.30;100.00;99117.31;5568320;32;33749;-55
2023/12/01 14:23:49;;;;;;;6.07;4.95;;;;;;;6.70;100.00;99101.94;5566283;32;33593;-55
2023/12/01 14:26:52;;;;;;;7.55;5.07;;;;;;;6.69;100.00;99117.13;5563900;32;33776;-55
2023/12/01 14:29:54;;;;;;;6.18;4.25;;;;;;;6.80;100.00;99123.13;5562781;32;33541;-56
2023/12/01 14:32:56;;;;;;;6.10;4.25;;;;;;;6.88;100.00;99108.38;5566425;32;34275;-55
2023/12/01 14:35:59;;;;;;;5.45;4.53;;;;;;;6.98;100.00;99132.19;5567824;32;33269;-55
2023/12/01 14:39:04;;;;;;;5.70;4.15;;;;;;;6.83;100.00;99118.00;5566027;32;34265;-55
2023/12/01 14:42:07;;;;;;;4.55;3.67;;;;;;;6.57;96.55;99109.53;5566694;32;33692;-55
2023/12/01 14:45:10;;;;;;;5.53;4.50;;;;;;;6.54;94.81;99122.63;5566631;32;34333;-55
2023/12/01 14:48:13;;;;;;;5.50;4.30;;;;;;;6.61;100.00;99123.06;5566109;32;34333;-56
2023/12/01 14:51:16;;;;;;;5.00;4.00;;;;;;;6.52;100.00;99122.94;5566070;32;33767;-55
2023/12/01 14:54:19;;;;;;;7.05;5.12;;;;;;;6.36;97.92;99121.50;5565878;32;33657;-55
2023/12/01 14:57:21;;;;;;;6.18;4.93;;;;;;;6.26;100.00;99116.28;5568616;32;33790;-55
2023/12/01 15:00:23;;;;;;;6.72;5.12;;;;;;;6.06;92.12;99120.75;5568939;32;33596;-55
2023/12/01 15:03:26;;;;;;;6.18;4.93;;;;;;;5.89;98.58;99109.69;5567256;32;34542;-55
2023/12/01 15:06:28;;;;;;;7.15;5.03;;;;;;;5.95;93.70;99121.88;5567362;32;33565;-55
2023/12/01 15:09:30;;;;;;;6.55;5.25;;;;;;;5.62;96.47;99123.47;5566647;31;33851;-55
2023/12/01 15:12:33;;;;;;;6.85;5.10;;;;;;;6.20;100.00;99109.44;5566564;32;33958;-55
2023/12/01 15:15:38;;;;;;;6.72;4.72;;;;;;;5.80;94.77;99127.34;5564671;32;34335;-55
2023/12/01 15:18:41;;;;;;;6.95;4.32;;;;;;;6.26;100.00;99097.66;5568668;32;33697;-56
2023/12/01 15:21:44;;;;;;;6.85;5.18;;;;;;;5.97;94.96;99106.44;5568162;32;34347;-55
2023/12/01 15:24:47;;;;;;;6.30;4.78;;;;;;;6.39;100.00;99112.97;5567412;32;33602;-56
2023/12/01 15:27:49;;;;;;;6.30;4.60;;;;;;;6.33;100.00;99122.84;5565463;32;33308;-55
2023/12/01 15:30:51;;;;;;;7.72;4.72;;;;;;;6.01;94.56;99127.97;5564212;32;33669;-55
2023/12/01 15:33:54;;;;;;;5.80;4.60;;;;;;;5.86;100.00;99121.69;5567946;32;34720;-56
2023/12/01 15:36:56;;;;;;;6.35;4.40;;;;;;;5.97;100.00;99114.44;5566627;32;33664;-58
2023/12/01 15:39:58;;;;;;;6.53;5.25;;;;;;;6.14;100.00;99119.31;5567583;32;33630;-57
2023/12/01 15:43:01;;;;;;;6.62;5.85;;;;;;;6.14;100.00;99122.00;5567553;32;33731;-58
2023/12/01 15:46:05;;;;;;;5.75;4.97;;;;;;;6.24;100.00;99099.81;5565709;32;33470;-57
2023/12/01 15:49:08;;;;;;;6.93;5.45;;;;;;;6.31;100.00;99111.69;5567333;32;34333;-57
2023/12/01 15:52:11;;;;;;;6.50;4.97;;;;;;;6.34;100.00;99099.69;5564750;32;33746;-57
2023/12/01 15:55:13;;;;;;;6.68;5.18;;;;;;;6.46;98.56;99101.97;5568224;32;33275;-57
2023/12/01 15:58:15;;;;;;;6.32;4.65;;;;;;;6.41;100.00;99080.72;5566943;32;34222;-58
2023/12/01 16:01:18;;;;;;;6.85;5.12;;;;;;;6.81;100.00;99064.22;5566793;32;34408;-58
2023/12/01 16:04:20;;;;;;;7.80;5.15;;;;;;;6.43;97.02;99076.69;5565103;32;33557;-58
2023/12/01 16:07:23;;;;;;;6.43;5.35;;;;;;;6.54;100.00;99088.81;5568321;32;33841;-58
2023/12/01 16:10:25;;;;;;;6.37;5.15;;;;;;;6.78;100.00;99067.47;5566280;32;33896;-58
2023/12/01 16:13:27;;;;;;;6.78;5.05;;;;;;;6.67;97.50;99068.69;5559630;32;34359;-58
2023/12/01 16:16:30;;;;;;;7.57;5.47;;;;;;;6.84;100.00;99068.19;5564269;32;33719;-58
2023/12/01 16:19:32;;;;;;;6.57;5.70;;;;;;;6.63;100.00;99075.66;5565104;32;34386;-57
2023/12/01 16:22:34;;;;;;;7.20;5.43;;;;;;;6.81;99.19;99071.44;5562773;32;33353;-58
2023/12/01 16:25:37;;;;;;;6.90;5.80;;;;;;;6.92;100.00;99072.88;5563004;32;33624;-57
2023/12/01 16:28:40;;;;;;;7.75;5.50;;;;;;;6.66;100.00;99068.97;5566461;32;33833;-58
2023/12/01 16:31:42;;;;;;;7.18;5.43;;;;;;;6.64;91.20;99069.25;5559345;32;34424;-57
